West Prestonsburg, Kentucky
Current Conditions -  °F | °C
As of 11:15 AM on Wednesday 26 Nov 2014 (Local Time) from KSJS Reporting Station
Overcast Overcast  
Wind Chill: 40°   Ceiling: 4700
Heat Index: 40°   Visibility: 10mi
Dew Point: 31°   Wind: 0mph
Humidity: 71%   Direction: NA
Pressure: 30.05"   Gusts: NA
Location:  37.67°N, 82.78°W
Report Text: KSJS 261615Z AUTO 00000KT 10SM SCT020 SCT026 OVC047 05/00 A3005 RMK AO2 T00451004
Loading
Personal Weather Stations






























Interactive Weather Map New forecast layout! Learn more

10-Day Weather Forecast

Advertisements
Track Severe Weather on mobile